sensor_id;sensor_type;location;lat;lon;timestamp;P1;P2;P0
47079;PMS5003;33067;49.296;14.470;2023-06-04T00:00:51;14;14;
47079;PMS5003;33067;49.296;14.470;2023-06-04T00:03:17;16;16;
47079;PMS5003;33067;49.296;14.470;2023-06-04T00:05:42;21;21;
47079;PMS5003;33067;49.296;14.470;2023-06-04T00:08:08;20;18;
47079;PMS5003;33067;49.296;14.470;2023-06-04T00:10:33;14;14;
47079;PMS5003;33067;49.296;14.470;2023-06-04T00:12:59;22;22;
47079;PMS5003;33067;49.296;14.470;2023-06-04T00:15:24;17;17;
47079;PMS5003;33067;49.296;14.470;2023-06-04T00:17:49;14;14;
47079;PMS5003;33067;49.296;14.470;2023-06-04T00:20:14;13;13;
47079;PMS5003;33067;49.296;14.470;2023-06-04T00:22:40;15;12;
47079;PMS5003;33067;49.296;14.470;2023-06-04T00:25:06;13;13;
47079;PMS5003;33067;49.296;14.470;2023-06-04T00:27:31;14;14;
47079;PMS5003;33067;49.296;14.470;2023-06-04T00:29:56;13;13;
47079;PMS5003;33067;49.296;14.470;2023-06-04T00:32:21;11;11;
47079;PMS5003;33067;49.296;14.470;2023-06-04T00:34:50;16;14;
47079;PMS5003;33067;49.296;14.470;2023-06-04T00:37:12;18;17;
47079;PMS5003;33067;49.296;14.470;2023-06-04T00:39:37;14;12;
47079;PMS5003;33067;49.296;14.470;2023-06-04T00:42:04;14;13;
47079;PMS5003;33067;49.296;14.470;2023-06-04T00:44:29;14;13;
47079;PMS5003;33067;49.296;14.470;2023-06-04T00:46:54;16;15;
47079;PMS5003;33067;49.296;14.470;2023-06-04T00:49:20;11;10;
47079;PMS5003;33067;49.296;14.470;2023-06-04T00:51:45;12;12;
47079;PMS5003;33067;49.296;14.470;2023-06-04T00:54:10;13;11;
47079;PMS5003;33067;49.296;14.470;2023-06-04T00:56:36;14;14;
47079;PMS5003;33067;49.296;14.470;2023-06-04T00:59:02;11;11;
47079;PMS5003;33067;49.296;14.470;2023-06-04T01:01:29;9;9;
47079;PMS5003;33067;49.296;14.470;2023-06-04T01:03:53;13;13;
47079;PMS5003;33067;49.296;14.470;2023-06-04T01:06:19;14;14;
47079;PMS5003;33067;49.296;14.470;2023-06-04T01:08:43;12;10;
47079;PMS5003;33067;49.296;14.470;2023-06-04T01:11:08;11;11;
47079;PMS5003;33067;49.296;14.470;2023-06-04T01:13:33;13;13;
47079;PMS5003;33067;49.296;14.470;2023-06-04T01:15:59;11;10;
47079;PMS5003;33067;49.296;14.470;2023-06-04T01:18:26;12;12;
47079;PMS5003;33067;49.296;14.470;2023-06-04T01:20:49;10;10;
47079;PMS5003;33067;49.296;14.470;2023-06-04T01:23:19;12;10;
47079;PMS5003;33067;49.296;14.470;2023-06-04T01:25:41;13;11;
47079;PMS5003;33067;49.296;14.470;2023-06-04T01:28:06;14;13;
47079;PMS5003;33067;49.296;14.470;2023-06-04T01:30:33;10;10;
47079;PMS5003;33067;49.296;14.470;2023-06-04T01:32:57;9;9;
47079;PMS5003;33067;49.296;14.470;2023-06-04T01:35:22;12;11;
47079;PMS5003;33067;49.296;14.470;2023-06-04T01:37:47;13;13;
47079;PMS5003;33067;49.296;14.470;2023-06-04T01:40:12;10;10;
47079;PMS5003;33067;49.296;14.470;2023-06-04T01:42:38;12;12;
47079;PMS5003;33067;49.296;14.470;2023-06-04T01:45:04;13;11;
47079;PMS5003;33067;49.296;14.470;2023-06-04T01:47:29;14;14;
47079;PMS5003;33067;49.296;14.470;2023-06-04T01:49:54;15;15;
47079;PMS5003;33067;49.296;14.470;2023-06-04T01:52:20;13;13;
47079;PMS5003;33067;49.296;14.470;2023-06-04T01:54:45;19;15;
47079;PMS5003;33067;49.296;14.470;2023-06-04T01:57:11;13;13;
47079;PMS5003;33067;49.296;14.470;2023-06-04T01:59:36;15;14;
47079;PMS5003;33067;49.296;14.470;2023-06-04T02:02:02;18;17;
47079;PMS5003;33067;49.296;14.470;2023-06-04T02:04:27;25;25;
47079;PMS5003;33067;49.296;14.470;2023-06-04T02:06:53;24;24;
47079;PMS5003;33067;49.296;14.470;2023-06-04T02:09:18;11;9;
47079;PMS5003;33067;49.296;14.470;2023-06-04T02:13:01;16;13;
47079;PMS5003;33067;49.296;14.470;2023-06-04T02:15:26;11;11;
47079;PMS5003;33067;49.296;14.470;2023-06-04T02:17:53;14;12;
47079;PMS5003;33067;49.296;14.470;2023-06-04T02:20:16;12;12;
47079;PMS5003;33067;49.296;14.470;2023-06-04T02:22:42;11;11;
47079;PMS5003;33067;49.296;14.470;2023-06-04T02:25:08;10;10;
47079;PMS5003;33067;49.296;14.470;2023-06-04T02:27:33;12;12;
47079;PMS5003;33067;49.296;14.470;2023-06-04T02:29:59;13;12;
47079;PMS5003;33067;49.296;14.470;2023-06-04T02:32:24;13;12;
47079;PMS5003;33067;49.296;14.470;2023-06-04T02:34:50;13;13;
47079;PMS5003;33067;49.296;14.470;2023-06-04T02:37:15;11;11;
47079;PMS5003;33067;49.296;14.470;2023-06-04T02:39:40;12;12;
47079;PMS5003;33067;49.296;14.470;2023-06-04T02:42:06;10;10;
47079;PMS5003;33067;49.296;14.470;2023-06-04T02:44:31;11;11;
47079;PMS5003;33067;49.296;14.470;2023-06-04T02:46:56;13;13;
47079;PMS5003;33067;49.296;14.470;2023-06-04T02:49:21;18;16;
47079;PMS5003;33067;49.296;14.470;2023-06-04T02:51:47;15;15;
47079;PMS5003;33067;49.296;14.470;2023-06-04T02:54:12;13;13;
47079;PMS5003;33067;49.296;14.470;2023-06-04T02:56:37;12;12;
47079;PMS5003;33067;49.296;14.470;2023-06-04T02:59:02;11;11;
47079;PMS5003;33067;49.296;14.470;2023-06-04T03:01:28;11;11;
47079;PMS5003;33067;49.296;14.470;2023-06-04T03:03:54;14;13;
47079;PMS5003;33067;49.296;14.470;2023-06-04T03:06:19;19;16;
47079;PMS5003;33067;49.296;14.470;2023-06-04T03:08:43;14;12;
47079;PMS5003;33067;49.296;14.470;2023-06-04T03:11:09;13;13;
47079;PMS5003;33067;49.296;14.470;2023-06-04T03:13:34;13;13;
47079;PMS5003;33067;49.296;14.470;2023-06-04T03:15:59;14;13;
47079;PMS5003;33067;49.296;14.470;2023-06-04T03:18:24;13;13;
47079;PMS5003;33067;49.296;14.470;2023-06-04T03:20:50;11;11;
47079;PMS5003;33067;49.296;14.470;2023-06-04T03:23:15;69;65;
47079;PMS5003;33067;49.296;14.470;2023-06-04T03:25:41;104;101;
47079;PMS5003;33067;49.296;14.470;2023-06-04T03:28:06;127;125;
47079;PMS5003;33067;49.296;14.470;2023-06-04T03:30:31;194;188;
47079;PMS5003;33067;49.296;14.470;2023-06-04T03:32:57;86;80;
47079;PMS5003;33067;49.296;14.470;2023-06-04T03:35:23;70;68;
47079;PMS5003;33067;49.296;14.470;2023-06-04T03:37:48;35;35;
47079;PMS5003;33067;49.296;14.470;2023-06-04T03:40:13;45;43;
47079;PMS5003;33067;49.296;14.470;2023-06-04T03:42:39;33;31;
47079;PMS5003;33067;49.296;14.470;2023-06-04T03:45:04;23;23;
47079;PMS5003;33067;49.296;14.470;2023-06-04T03:47:29;20;19;
47079;PMS5003;33067;49.296;14.470;2023-06-04T03:49:54;14;14;
47079;PMS5003;33067;49.296;14.470;2023-06-04T03:52:20;23;23;
47079;PMS5003;33067;49.296;14.470;2023-06-04T03:54:45;14;14;
47079;PMS5003;33067;49.296;14.470;2023-06-04T03:57:10;15;15;
47079;PMS5003;33067;49.296;14.470;2023-06-04T03:59:36;14;14;
47079;PMS5003;33067;49.296;14.470;2023-06-04T04:02:01;10;10;
47079;PMS5003;33067;49.296;14.470;2023-06-04T04:04:27;14;14;
47079;PMS5003;33067;49.296;14.470;2023-06-04T04:06:53;12;10;
47079;PMS5003;33067;49.296;14.470;2023-06-04T04:09:19;17;17;
47079;PMS5003;33067;49.296;14.470;2023-06-04T04:11:44;11;11;
47079;PMS5003;33067;49.296;14.470;2023-06-04T04:14:09;14;10;
47079;PMS5003;33067;49.296;14.470;2023-06-04T04:16:35;9;9;
47079;PMS5003;33067;49.296;14.470;2023-06-04T04:19:00;9;9;
47079;PMS5003;33067;49.296;14.470;2023-06-04T04:21:25;10;10;
47079;PMS5003;33067;49.296;14.470;2023-06-04T04:23:51;10;10;
47079;PMS5003;33067;49.296;14.470;2023-06-04T04:26:16;11;10;
47079;PMS5003;33067;49.296;14.470;2023-06-04T04:28:42;12;12;
47079;PMS5003;33067;49.296;14.470;2023-06-04T04:31:07;9;9;
47079;PMS5003;33067;49.296;14.470;2023-06-04T04:33:32;10;8;
47079;PMS5003;33067;49.296;14.470;2023-06-04T04:35:58;14;12;
47079;PMS5003;33067;49.296;14.470;2023-06-04T04:38:23;12;11;
47079;PMS5003;33067;49.296;14.470;2023-06-04T04:40:48;10;10;
47079;PMS5003;33067;49.296;14.470;2023-06-04T04:43:14;13;11;
47079;PMS5003;33067;49.296;14.470;2023-06-04T04:45:39;12;12;
47079;PMS5003;33067;49.296;14.470;2023-06-04T04:48:05;12;12;
47079;PMS5003;33067;49.296;14.470;2023-06-04T04:50:30;10;10;
47079;PMS5003;33067;49.296;14.470;2023-06-04T04:52:55;10;10;
47079;PMS5003;33067;49.296;14.470;2023-06-04T04:55:21;15;11;
47079;PMS5003;33067;49.296;14.470;2023-06-04T04:57:46;12;11;
47079;PMS5003;33067;49.296;14.470;2023-06-04T05:00:12;11;10;
47079;PMS5003;33067;49.296;14.470;2023-06-04T05:02:36;11;11;
47079;PMS5003;33067;49.296;14.470;2023-06-04T05:05:01;9;9;
47079;PMS5003;33067;49.296;14.470;2023-06-04T05:07:27;15;13;
47079;PMS5003;33067;49.296;14.470;2023-06-04T05:09:52;18;15;
47079;PMS5003;33067;49.296;14.470;2023-06-04T05:12:17;10;10;
47079;PMS5003;33067;49.296;14.470;2023-06-04T05:14:42;14;11;
47079;PMS5003;33067;49.296;14.470;2023-06-04T05:17:07;11;11;
47079;PMS5003;33067;49.296;14.470;2023-06-04T05:19:33;11;11;
47079;PMS5003;33067;49.296;14.470;2023-06-04T05:21:58;10;10;
47079;PMS5003;33067;49.296;14.470;2023-06-04T05:24:23;9;9;
47079;PMS5003;33067;49.296;14.470;2023-06-04T05:26:48;9;8;
47079;PMS5003;33067;49.296;14.470;2023-06-04T05:29:14;11;11;
47079;PMS5003;33067;49.296;14.470;2023-06-04T05:31:39;9;9;
47079;PMS5003;33067;49.296;14.470;2023-06-04T05:34:04;12;11;
47079;PMS5003;33067;49.296;14.470;2023-06-04T05:36:29;12;10;
47079;PMS5003;33067;49.296;14.470;2023-06-04T05:38:55;16;16;
47079;PMS5003;33067;49.296;14.470;2023-06-04T05:41:20;10;10;
47079;PMS5003;33067;49.296;14.470;2023-06-04T05:43:46;8;8;
47079;PMS5003;33067;49.296;14.470;2023-06-04T05:46:11;10;10;
47079;PMS5003;33067;49.296;14.470;2023-06-04T05:48:36;8;8;
47079;PMS5003;33067;49.296;14.470;2023-06-04T05:51:01;16;15;
47079;PMS5003;33067;49.296;14.470;2023-06-04T05:53:26;9;9;
47079;PMS5003;33067;49.296;14.470;2023-06-04T05:55:51;12;12;
47079;PMS5003;33067;49.296;14.470;2023-06-04T05:58:16;11;10;
47079;PMS5003;33067;49.296;14.470;2023-06-04T06:00:41;8;8;
47079;PMS5003;33067;49.296;14.470;2023-06-04T06:03:06;8;8;
47079;PMS5003;33067;49.296;14.470;2023-06-04T06:05:31;10;10;
47079;PMS5003;33067;49.296;14.470;2023-06-04T06:07:56;7;7;
47079;PMS5003;33067;49.296;14.470;2023-06-04T06:10:22;14;11;
47079;PMS5003;33067;49.296;14.470;2023-06-04T06:12:47;7;7;
47079;PMS5003;33067;49.296;14.470;2023-06-04T06:15:12;8;8;
47079;PMS5003;33067;49.296;14.470;2023-06-04T06:17:37;8;8;
47079;PMS5003;33067;49.296;14.470;2023-06-04T06:20:02;5;5;
47079;PMS5003;33067;49.296;14.470;2023-06-04T06:22:27;8;6;
47079;PMS5003;33067;49.296;14.470;2023-06-04T06:24:52;9;9;
47079;PMS5003;33067;49.296;14.470;2023-06-04T06:27:17;7;7;
47079;PMS5003;33067;49.296;14.470;2023-06-04T06:29:43;7;5;
47079;PMS5003;33067;49.296;14.470;2023-06-04T06:32:08;8;8;
47079;PMS5003;33067;49.296;14.470;2023-06-04T06:34:33;7;7;
47079;PMS5003;33067;49.296;14.470;2023-06-04T06:36:58;8;7;
47079;PMS5003;33067;49.296;14.470;2023-06-04T06:39:23;7;6;
47079;PMS5003;33067;49.296;14.470;2023-06-04T06:41:48;7;7;
47079;PMS5003;33067;49.296;14.470;2023-06-04T06:44:13;6;6;
47079;PMS5003;33067;49.296;14.470;2023-06-04T06:46:38;7;7;
47079;PMS5003;33067;49.296;14.470;2023-06-04T06:49:03;7;7;
47079;PMS5003;33067;49.296;14.470;2023-06-04T06:51:28;8;7;
47079;PMS5003;33067;49.296;14.470;2023-06-04T06:53:53;7;7;
47079;PMS5003;33067;49.296;14.470;2023-06-04T06:56:19;7;7;
47079;PMS5003;33067;49.296;14.470;2023-06-04T06:58:44;9;8;
47079;PMS5003;33067;49.296;14.470;2023-06-04T07:01:11;7;7;
47079;PMS5003;33067;49.296;14.470;2023-06-04T07:03:36;9;8;
47079;PMS5003;33067;49.296;14.470;2023-06-04T07:06:02;11;9;
47079;PMS5003;33067;49.296;14.470;2023-06-04T07:08:28;8;8;
47079;PMS5003;33067;49.296;14.470;2023-06-04T07:10:54;9;8;
47079;PMS5003;33067;49.296;14.470;2023-06-04T07:13:19;6;5;
47079;PMS5003;33067;49.296;14.470;2023-06-04T07:15:45;6;6;
47079;PMS5003;33067;49.296;14.470;2023-06-04T07:18:11;11;8;
47079;PMS5003;33067;49.296;14.470;2023-06-04T07:20:37;6;6;
47079;PMS5003;33067;49.296;14.470;2023-06-04T07:23:03;4;4;
47079;PMS5003;33067;49.296;14.470;2023-06-04T07:25:29;4;4;
47079;PMS5003;33067;49.296;14.470;2023-06-04T07:27:54;5;5;
47079;PMS5003;33067;49.296;14.470;2023-06-04T07:30:20;6;6;
47079;PMS5003;33067;49.296;14.470;2023-06-04T07:32:47;7;7;
47079;PMS5003;33067;49.296;14.470;2023-06-04T07:35:12;8;8;
47079;PMS5003;33067;49.296;14.470;2023-06-04T07:37:38;6;6;
47079;PMS5003;33067;49.296;14.470;2023-06-04T07:40:04;8;8;
47079;PMS5003;33067;49.296;14.470;2023-06-04T07:42:29;8;6;
47079;PMS5003;33067;49.296;14.470;2023-06-04T07:44:55;6;6;
47079;PMS5003;33067;49.296;14.470;2023-06-04T07:47:21;6;4;
47079;PMS5003;33067;49.296;14.470;2023-06-04T07:49:47;5;5;
47079;PMS5003;33067;49.296;14.470;2023-06-04T07:52:12;4;4;
47079;PMS5003;33067;49.296;14.470;2023-06-04T07:54:38;6;6;
47079;PMS5003;33067;49.296;14.470;2023-06-04T07:57:04;5;5;
47079;PMS5003;33067;49.296;14.470;2023-06-04T07:59:30;7;7;
47079;PMS5003;33067;49.296;14.470;2023-06-04T08:01:56;8;8;
47079;PMS5003;33067;49.296;14.470;2023-06-04T08:04:22;6;6;
47079;PMS5003;33067;49.296;14.470;2023-06-04T08:06:47;6;5;
47079;PMS5003;33067;49.296;14.470;2023-06-04T08:09:13;5;5;
47079;PMS5003;33067;49.296;14.470;2023-06-04T08:11:41;6;6;
47079;PMS5003;33067;49.296;14.470;2023-06-04T08:14:05;4;4;
47079;PMS5003;33067;49.296;14.470;2023-06-04T08:16:31;5;5;
47079;PMS5003;33067;49.296;14.470;2023-06-04T08:18:57;4;4;
47079;PMS5003;33067;49.296;14.470;2023-06-04T08:21:25;5;5;
47079;PMS5003;33067;49.296;14.470;2023-06-04T08:23:48;5;5;
47079;PMS5003;33067;49.296;14.470;2023-06-04T08:26:14;5;5;
47079;PMS5003;33067;49.296;14.470;2023-06-04T08:28:40;5;4;
47079;PMS5003;33067;49.296;14.470;2023-06-04T08:31:06;5;5;
47079;PMS5003;33067;49.296;14.470;2023-06-04T08:33:31;5;5;
47079;PMS5003;33067;49.296;14.470;2023-06-04T08:35:57;7;7;
47079;PMS5003;33067;49.296;14.470;2023-06-04T08:38:23;6;6;
47079;PMS5003;33067;49.296;14.470;2023-06-04T08:40:50;8;5;
47079;PMS5003;33067;49.296;14.470;2023-06-04T08:43:15;5;5;
47079;PMS5003;33067;49.296;14.470;2023-06-04T08:45:41;4;4;
47079;PMS5003;33067;49.296;14.470;2023-06-04T08:48:07;4;4;
47079;PMS5003;33067;49.296;14.470;2023-06-04T08:50:32;4;4;
47079;PMS5003;33067;49.296;14.470;2023-06-04T08:52:58;5;5;
47079;PMS5003;33067;49.296;14.470;2023-06-04T08:55:24;4;4;
47079;PMS5003;33067;49.296;14.470;2023-06-04T08:57:50;5;5;
47079;PMS5003;33067;49.296;14.470;2023-06-04T09:00:15;4;4;
47079;PMS5003;33067;49.296;14.470;2023-06-04T09:02:41;5;5;
47079;PMS5003;33067;49.296;14.470;2023-06-04T09:05:07;5;3;
47079;PMS5003;33067;49.296;14.470;2023-06-04T09:07:33;4;4;
47079;PMS5003;33067;49.296;14.470;2023-06-04T09:09:59;5;5;
47079;PMS5003;33067;49.296;14.470;2023-06-04T09:12:24;5;4;
47079;PMS5003;33067;49.296;14.470;2023-06-04T09:14:50;4;3;
47079;PMS5003;33067;49.296;14.470;2023-06-04T09:17:20;4;4;
47079;PMS5003;33067;49.296;14.470;2023-06-04T09:19:42;4;4;
47079;PMS5003;33067;49.296;14.470;2023-06-04T09:22:07;6;6;
47079;PMS5003;33067;49.296;14.470;2023-06-04T09:24:39;4;4;
47079;PMS5003;33067;49.296;14.470;2023-06-04T09:26:59;5;5;
47079;PMS5003;33067;49.296;14.470;2023-06-04T09:29:26;7;7;
47079;PMS5003;33067;49.296;14.470;2023-06-04T09:34:16;5;5;
47079;PMS5003;33067;49.296;14.470;2023-06-04T09:36:42;5;5;
47079;PMS5003;33067;49.296;14.470;2023-06-04T09:39:14;4;4;
47079;PMS5003;33067;49.296;14.470;2023-06-04T09:41:34;4;4;
47079;PMS5003;33067;49.296;14.470;2023-06-04T09:44:00;5;5;
47079;PMS5003;33067;49.296;14.470;2023-06-04T09:46:25;4;4;
47079;PMS5003;33067;49.296;14.470;2023-06-04T09:48:58;8;6;
47079;PMS5003;33067;49.296;14.470;2023-06-04T09:51:17;6;5;
47079;PMS5003;33067;49.296;14.470;2023-06-04T09:53:43;5;3;
47079;PMS5003;33067;49.296;14.470;2023-06-04T09:56:08;6;6;
47079;PMS5003;33067;49.296;14.470;2023-06-04T09:58:34;5;5;
47079;PMS5003;33067;49.296;14.470;2023-06-04T10:01:03;4;4;
47079;PMS5003;33067;49.296;14.470;2023-06-04T10:03:27;7;7;
47079;PMS5003;33067;49.296;14.470;2023-06-04T10:05:51;5;5;
47079;PMS5003;33067;49.296;14.470;2023-06-04T10:08:17;4;4;
47079;PMS5003;33067;49.296;14.470;2023-06-04T10:10:43;6;4;
47079;PMS5003;33067;49.296;14.470;2023-06-04T10:13:09;4;4;
47079;PMS5003;33067;49.296;14.470;2023-06-04T10:15:35;7;7;
47079;PMS5003;33067;49.296;14.470;2023-06-04T10:18:01;5;5;
47079;PMS5003;33067;49.296;14.470;2023-06-04T10:20:26;6;6;
47079;PMS5003;33067;49.296;14.470;2023-06-04T10:22:52;5;5;
47079;PMS5003;33067;49.296;14.470;2023-06-04T10:25:18;3;3;
47079;PMS5003;33067;49.296;14.470;2023-06-04T10:27:43;6;6;
47079;PMS5003;33067;49.296;14.470;2023-06-04T10:30:09;4;4;
47079;PMS5003;33067;49.296;14.470;2023-06-04T10:32:35;5;5;
47079;PMS5003;33067;49.296;14.470;2023-06-04T10:35:03;5;5;
47079;PMS5003;33067;49.296;14.470;2023-06-04T10:37:26;7;7;
47079;PMS5003;33067;49.296;14.470;2023-06-04T10:39:53;11;9;
47079;PMS5003;33067;49.296;14.470;2023-06-04T10:42:18;6;6;
47079;PMS5003;33067;49.296;14.470;2023-06-04T10:44:44;7;6;
47079;PMS5003;33067;49.296;14.470;2023-06-04T10:49:35;5;5;
47079;PMS5003;33067;49.296;14.470;2023-06-04T10:54:28;8;7;
47079;PMS5003;33067;49.296;14.470;2023-06-04T10:56:53;5;5;
47079;PMS5003;33067;49.296;14.470;2023-06-04T10:59:19;6;6;
47079;PMS5003;33067;49.296;14.470;2023-06-04T11:01:44;6;6;
47079;PMS5003;33067;49.296;14.470;2023-06-04T11:04:19;7;7;
47079;PMS5003;33067;49.296;14.470;2023-06-04T11:06:36;3;3;
47079;PMS5003;33067;49.296;14.470;2023-06-04T11:09:02;8;6;
47079;PMS5003;33067;49.296;14.470;2023-06-04T11:11:27;6;5;
47079;PMS5003;33067;49.296;14.470;2023-06-04T11:13:53;9;8;
47079;PMS5003;33067;49.296;14.470;2023-06-04T11:16:19;7;7;
47079;PMS5003;33067;49.296;14.470;2023-06-04T11:21:10;7;7;
47079;PMS5003;33067;49.296;14.470;2023-06-04T11:23:36;7;7;
47079;PMS5003;33067;49.296;14.470;2023-06-04T11:26:02;7;7;
47079;PMS5003;33067;49.296;14.470;2023-06-04T11:28:28;6;6;
47079;PMS5003;33067;49.296;14.470;2023-06-04T11:30:57;7;7;
47079;PMS5003;33067;49.296;14.470;2023-06-04T11:33:19;7;5;
47079;PMS5003;33067;49.296;14.470;2023-06-04T11:35:45;9;9;
47079;PMS5003;33067;49.296;14.470;2023-06-04T11:38:11;8;7;
47079;PMS5003;33067;49.296;14.470;2023-06-04T11:40:37;7;7;
47079;PMS5003;33067;49.296;14.470;2023-06-04T11:43:02;7;7;
47079;PMS5003;33067;49.296;14.470;2023-06-04T11:45:28;8;8;
47079;PMS5003;33067;49.296;14.470;2023-06-04T11:47:54;8;8;
47079;PMS5003;33067;49.296;14.470;2023-06-04T11:50:20;8;8;
47079;PMS5003;33067;49.296;14.470;2023-06-04T11:52:45;9;9;
47079;PMS5003;33067;49.296;14.470;2023-06-04T11:55:10;8;7;
47079;PMS5003;33067;49.296;14.470;2023-06-04T11:57:36;6;6;
47079;PMS5003;33067;49.296;14.470;2023-06-04T12:00:02;8;8;
47079;PMS5003;33067;49.296;14.470;2023-06-04T12:02:28;10;7;
47079;PMS5003;33067;49.296;14.470;2023-06-04T12:04:53;8;8;
47079;PMS5003;33067;49.296;14.470;2023-06-04T12:07:20;7;7;
47079;PMS5003;33067;49.296;14.470;2023-06-04T12:09:45;7;7;
47079;PMS5003;33067;49.296;14.470;2023-06-04T12:12:11;10;9;
47079;PMS5003;33067;49.296;14.470;2023-06-04T12:14:37;6;6;
47079;PMS5003;33067;49.296;14.470;2023-06-04T12:17:06;6;6;
47079;PMS5003;33067;49.296;14.470;2023-06-04T12:19:28;8;8;
47079;PMS5003;33067;49.296;14.470;2023-06-04T12:21:59;6;6;
47079;PMS5003;33067;49.296;14.470;2023-06-04T12:24:20;6;5;
47079;PMS5003;33067;49.296;14.470;2023-06-04T12:26:45;7;7;
47079;PMS5003;33067;49.296;14.470;2023-06-04T12:29:11;8;7;
47079;PMS5003;33067;49.296;14.470;2023-06-04T12:31:37;8;6;
47079;PMS5003;33067;49.296;14.470;2023-06-04T12:34:02;9;7;
47079;PMS5003;33067;49.296;14.470;2023-06-04T12:36:28;7;7;
47079;PMS5003;33067;49.296;14.470;2023-06-04T12:38:57;10;10;
47079;PMS5003;33067;49.296;14.470;2023-06-04T12:41:20;7;7;
47079;PMS5003;33067;49.296;14.470;2023-06-04T12:43:45;7;7;
47079;PMS5003;33067;49.296;14.470;2023-06-04T12:46:11;7;7;
47079;PMS5003;33067;49.296;14.470;2023-06-04T12:48:37;7;7;
47079;PMS5003;33067;49.296;14.470;2023-06-04T12:51:03;8;8;
47079;PMS5003;33067;49.296;14.470;2023-06-04T12:53:29;8;8;
47079;PMS5003;33067;49.296;14.470;2023-06-04T12:55:54;9;9;
47079;PMS5003;33067;49.296;14.470;2023-06-04T12:58:20;8;8;
47079;PMS5003;33067;49.296;14.470;2023-06-04T13:00:46;9;9;
47079;PMS5003;33067;49.296;14.470;2023-06-04T13:03:12;9;9;
47079;PMS5003;33067;49.296;14.470;2023-06-04T13:05:37;8;8;
47079;PMS5003;33067;49.296;14.470;2023-06-04T13:08:03;8;8;
47079;PMS5003;33067;49.296;14.470;2023-06-04T13:10:29;8;8;
47079;PMS5003;33067;49.296;14.470;2023-06-04T13:12:55;8;8;
47079;PMS5003;33067;49.296;14.470;2023-06-04T13:15:21;8;8;
47079;PMS5003;33067;49.296;14.470;2023-06-04T13:17:46;10;8;
47079;PMS5003;33067;49.296;14.470;2023-06-04T13:20:12;11;10;
47079;PMS5003;33067;49.296;14.470;2023-06-04T13:22:38;9;8;
47079;PMS5003;33067;49.296;14.470;2023-06-04T13:25:04;9;9;
47079;PMS5003;33067;49.296;14.470;2023-06-04T13:27:29;9;9;
47079;PMS5003;33067;49.296;14.470;2023-06-04T13:29:55;7;7;
47079;PMS5003;33067;49.296;14.470;2023-06-04T13:32:21;8;8;
47079;PMS5003;33067;49.296;14.470;2023-06-04T13:34:47;8;8;
47079;PMS5003;33067;49.296;14.470;2023-06-04T13:37:12;7;7;
47079;PMS5003;33067;49.296;14.470;2023-06-04T13:39:38;6;6;
47079;PMS5003;33067;49.296;14.470;2023-06-04T13:42:04;8;8;
47079;PMS5003;33067;49.296;14.470;2023-06-04T13:44:30;10;9;
47079;PMS5003;33067;49.296;14.470;2023-06-04T13:46:57;9;9;
47079;PMS5003;33067;49.296;14.470;2023-06-04T13:49:21;10;8;
47079;PMS5003;33067;49.296;14.470;2023-06-04T13:51:47;8;8;
47079;PMS5003;33067;49.296;14.470;2023-06-04T13:54:13;9;7;
47079;PMS5003;33067;49.296;14.470;2023-06-04T13:56:39;9;8;
47079;PMS5003;33067;49.296;14.470;2023-06-04T13:59:04;5;5;
47079;PMS5003;33067;49.296;14.470;2023-06-04T14:01:30;10;10;
47079;PMS5003;33067;49.296;14.470;2023-06-04T14:03:56;6;6;
47079;PMS5003;33067;49.296;14.470;2023-06-04T14:06:22;8;8;
47079;PMS5003;33067;49.296;14.470;2023-06-04T14:08:47;11;10;
47079;PMS5003;33067;49.296;14.470;2023-06-04T14:11:13;10;8;
47079;PMS5003;33067;49.296;14.470;2023-06-04T14:13:39;9;9;
47079;PMS5003;33067;49.296;14.470;2023-06-04T14:16:05;8;8;
47079;PMS5003;33067;49.296;14.470;2023-06-04T14:18:31;7;6;
47079;PMS5003;33067;49.296;14.470;2023-06-04T14:20:56;9;9;
47079;PMS5003;33067;49.296;14.470;2023-06-04T14:23:22;7;7;
47079;PMS5003;33067;49.296;14.470;2023-06-04T14:25:48;9;8;
47079;PMS5003;33067;49.296;14.470;2023-06-04T14:28:14;9;9;
47079;PMS5003;33067;49.296;14.470;2023-06-04T14:30:40;8;8;
47079;PMS5003;33067;49.296;14.470;2023-06-04T14:33:05;11;11;
47079;PMS5003;33067;49.296;14.470;2023-06-04T14:35:31;10;10;
47079;PMS5003;33067;49.296;14.470;2023-06-04T14:37:57;9;9;
47079;PMS5003;33067;49.296;14.470;2023-06-04T14:40:22;9;8;
47079;PMS5003;33067;49.296;14.470;2023-06-04T14:42:48;8;8;
47079;PMS5003;33067;49.296;14.470;2023-06-04T14:45:14;9;9;
47079;PMS5003;33067;49.296;14.470;2023-06-04T14:47:40;13;10;
47079;PMS5003;33067;49.296;14.470;2023-06-04T14:50:06;12;10;
47079;PMS5003;33067;49.296;14.470;2023-06-04T14:52:31;11;8;
47079;PMS5003;33067;49.296;14.470;2023-06-04T14:54:57;11;11;
47079;PMS5003;33067;49.296;14.470;2023-06-04T14:57:22;10;10;
47079;PMS5003;33067;49.296;14.470;2023-06-04T14:59:48;11;8;
47079;PMS5003;33067;49.296;14.470;2023-06-04T15:02:14;14;11;
47079;PMS5003;33067;49.296;14.470;2023-06-04T15:04:40;9;9;
47079;PMS5003;33067;49.296;14.470;2023-06-04T15:07:05;12;10;
47079;PMS5003;33067;49.296;14.470;2023-06-04T15:09:31;8;7;
47079;PMS5003;33067;49.296;14.470;2023-06-04T15:11:57;8;8;
47079;PMS5003;33067;49.296;14.470;2023-06-04T15:14:23;8;8;
47079;PMS5003;33067;49.296;14.470;2023-06-04T15:16:49;10;10;
47079;PMS5003;33067;49.296;14.470;2023-06-04T15:19:15;11;10;
47079;PMS5003;33067;49.296;14.470;2023-06-04T15:21:40;10;10;
47079;PMS5003;33067;49.296;14.470;2023-06-04T15:24:06;8;8;
47079;PMS5003;33067;49.296;14.470;2023-06-04T15:26:32;13;11;
47079;PMS5003;33067;49.296;14.470;2023-06-04T15:28:57;9;9;
47079;PMS5003;33067;49.296;14.470;2023-06-04T15:31:23;11;11;
47079;PMS5003;33067;49.296;14.470;2023-06-04T15:33:49;10;10;
47079;PMS5003;33067;49.296;14.470;2023-06-04T15:36:15;10;10;
47079;PMS5003;33067;49.296;14.470;2023-06-04T15:38:41;9;9;
47079;PMS5003;33067;49.296;14.470;2023-06-04T15:41:06;8;8;
47079;PMS5003;33067;49.296;14.470;2023-06-04T15:43:32;11;9;
47079;PMS5003;33067;49.296;14.470;2023-06-04T15:45:58;10;10;
47079;PMS5003;33067;49.296;14.470;2023-06-04T15:48:24;7;7;
47079;PMS5003;33067;49.296;14.470;2023-06-04T15:50:49;13;11;
47079;PMS5003;33067;49.296;14.470;2023-06-04T15:53:15;10;10;
47079;PMS5003;33067;49.296;14.470;2023-06-04T15:55:41;9;9;
47079;PMS5003;33067;49.296;14.470;2023-06-04T15:58:06;10;10;
47079;PMS5003;33067;49.296;14.470;2023-06-04T16:00:32;11;11;
47079;PMS5003;33067;49.296;14.470;2023-06-04T16:02:58;8;7;
47079;PMS5003;33067;49.296;14.470;2023-06-04T16:05:23;10;10;
47079;PMS5003;33067;49.296;14.470;2023-06-04T16:07:49;9;9;
47079;PMS5003;33067;49.296;14.470;2023-06-04T16:10:15;12;11;
47079;PMS5003;33067;49.296;14.470;2023-06-04T16:12:41;11;11;
47079;PMS5003;33067;49.296;14.470;2023-06-04T16:15:06;12;12;
47079;PMS5003;33067;49.296;14.470;2023-06-04T16:17:32;12;12;